Time;durP1;ratioP1;P1;durP2;ratioP2;P2;SDS_P1;SDS_P2;PMS_P1;PMS_P2;Temp;Humidity;BMP_temperature;BMP_pressure;BME280_temperature;BME280_humidity;BME280_pressure;Samples;Min_cycle;Max_cycle;Signal;HPM_P1;HPM_P2
2021/11/21 00:00:31;;;;;;;2.58;1.02;;;;;;;11.37;100.00;100362.00;4991486;28;20779;-66
2021/11/21 00:02:58;;;;;;;1.95;0.80;;;;;;;11.38;100.00;100357.38;4992920;28;20053;-66
2021/11/21 00:05:24;;;;;;;1.25;1.10;;;;;;;11.38;100.00;100352.75;4989720;28;20033;-66
2021/11/21 00:07:50;;;;;;;1.58;0.73;;;;;;;11.36;100.00;100357.72;4990937;28;20030;-65
2021/11/21 00:10:15;;;;;;;3.55;1.38;;;;;;;11.37;100.00;100350.44;4990453;28;20149;-66
2021/11/21 00:12:42;;;;;;;2.47;1.20;;;;;;;11.40;100.00;100347.00;4992312;28;20046;-66
2021/11/21 00:15:09;;;;;;;2.13;1.20;;;;;;;11.45;100.00;100346.69;4974269;28;20050;-67
2021/11/21 00:17:34;;;;;;;2.92;1.70;;;;;;;11.47;100.00;100344.38;4989133;28;20049;-66
2021/11/21 00:20:00;;;;;;;2.22;1.25;;;;;;;11.45;100.00;100333.97;4990375;28;20031;-66
2021/11/21 00:22:28;;;;;;;3.15;1.10;;;;;;;11.42;100.00;100325.84;4992774;28;20109;-67
2021/11/21 00:24:57;;;;;;;2.83;1.65;;;;;;;11.41;100.00;100327.75;4989180;28;20125;-66
2021/11/21 00:27:22;;;;;;;3.00;1.20;;;;;;;11.41;100.00;100325.06;4992565;28;20490;-66
2021/11/21 00:29:50;;;;;;;4.13;1.40;;;;;;;11.41;100.00;100311.59;4982426;28;20564;-66
2021/11/21 00:32:15;;;;;;;2.72;1.20;;;;;;;11.41;100.00;100313.50;4991037;28;20041;-67
2021/11/21 00:34:42;;;;;;;1.67;1.20;;;;;;;11.49;100.00;100313.22;4991936;28;20049;-67
2021/11/21 00:37:07;;;;;;;2.83;1.20;;;;;;;11.43;100.00;100297.72;4992061;28;20034;-66
2021/11/21 00:39:35;;;;;;;2.95;1.30;;;;;;;11.47;100.00;100301.25;4991938;28;20026;-66
2021/11/21 00:42:01;;;;;;;1.70;1.10;;;;;;;11.50;100.00;100295.09;4991194;28;20088;-66
2021/11/21 00:44:27;;;;;;;2.90;1.20;;;;;;;11.49;100.00;100288.94;4989210;28;20038;-65
2021/11/21 00:46:52;;;;;;;2.10;1.05;;;;;;;11.44;100.00;100285.81;4990809;28;20151;-67
2021/11/21 00:49:19;;;;;;;4.35;1.38;;;;;;;11.40;100.00;100277.66;4992361;28;20545;-67
2021/11/21 00:51:45;;;;;;;1.80;1.10;;;;;;;11.42;100.00;100277.31;4990615;28;20620;-67
2021/11/21 00:56:57;;;;;;;1.50;0.77;;;;;;;11.35;100.00;100274.53;4960639;28;20647;-67
2021/11/21 00:59:24;;;;;;;3.35;1.08;;;;;;;11.44;100.00;100266.94;4991295;28;20030;-66
2021/11/21 01:01:51;;;;;;;1.50;0.90;;;;;;;11.43;100.00;100270.78;4990406;28;20065;-66
2021/11/21 01:04:17;;;;;;;1.40;1.00;;;;;;;11.51;100.00;100267.78;4991713;28;20065;-66
2021/11/21 01:06:44;;;;;;;2.10;1.17;;;;;;;11.38;100.00;100273.81;4988442;28;20070;-66
2021/11/21 01:09:10;;;;;;;2.67;1.30;;;;;;;11.32;100.00;100265.28;4991045;28;20072;-67
2021/11/21 01:11:36;;;;;;;1.90;1.25;;;;;;;11.33;100.00;100255.25;4991270;28;20551;-65
2021/11/21 01:14:02;;;;;;;3.42;1.10;;;;;;;11.37;100.00;100250.69;4988464;28;20117;-66
2021/11/21 01:16:28;;;;;;;3.33;1.15;;;;;;;11.39;100.00;100259.16;4990542;28;20022;-67
2021/11/21 01:18:57;;;;;;;2.35;1.20;;;;;;;11.42;100.00;100248.41;4990505;28;20042;-66
2021/11/21 01:21:24;;;;;;;4.35;1.10;;;;;;;11.33;100.00;100244.47;4990186;28;20399;-67
2021/11/21 01:23:50;;;;;;;4.20;1.30;;;;;;;11.36;100.00;100247.19;4987390;28;20101;-66
2021/11/21 01:26:16;;;;;;;1.85;1.17;;;;;;;11.36;100.00;100246.44;4990660;28;20117;-65
2021/11/21 01:28:41;;;;;;;1.50;1.33;;;;;;;11.39;100.00;100245.69;4990437;28;20505;-66
2021/11/21 01:31:07;;;;;;;1.65;1.30;;;;;;;11.41;100.00;100238.00;4986538;28;20022;-66
2021/11/21 01:33:33;;;;;;;1.50;1.00;;;;;;;11.44;100.00;100237.28;4988940;28;20069;-66
2021/11/21 01:35:58;;;;;;;3.95;2.47;;;;;;;11.30;100.00;100229.03;4991265;28;20390;-66
2021/11/21 01:38:24;;;;;;;3.45;1.55;;;;;;;11.34;100.00;100230.63;4989777;28;20023;-66
2021/11/21 01:40:50;;;;;;;1.90;1.20;;;;;;;11.43;100.00;100233.03;4986549;28;20033;-66
2021/11/21 01:43:18;;;;;;;1.02;0.93;;;;;;;11.43;100.00;100227.63;4990725;28;20030;-66
2021/11/21 01:45:47;;;;;;;4.45;1.17;;;;;;;11.39;100.00;100232.22;4990849;28;20034;-66
2021/11/21 01:48:12;;;;;;;2.92;1.52;;;;;;;11.41;100.00;100227.22;4991187;28;20057;-66
2021/11/21 01:50:40;;;;;;;2.63;1.00;;;;;;;11.37;100.00;100219.09;4987153;28;20038;-67
2021/11/21 01:53:07;;;;;;;3.45;0.88;;;;;;;11.45;100.00;100212.66;4990631;28;20031;-66
2021/11/21 01:55:37;;;;;;;1.50;0.90;;;;;;;11.46;99.78;100205.31;4987408;28;20038;-66
2021/11/21 01:58:03;;;;;;;1.70;1.13;;;;;;;11.47;100.00;100206.88;4990126;28;20085;-66
2021/11/21 02:00:33;;;;;;;2.00;0.88;;;;;;;11.52;100.00;100201.91;4987105;28;20559;-66
2021/11/21 02:02:59;;;;;;;2.38;1.35;;;;;;;11.57;99.42;100200.81;4989798;28;20038;-66
2021/11/21 02:05:25;;;;;;;1.63;0.90;;;;;;;11.52;100.00;100206.53;4989439;28;20592;-66
2021/11/21 02:07:50;;;;;;;1.75;1.40;;;;;;;11.43;100.00;100195.28;4987635;28;20036;-66
2021/11/21 02:10:17;;;;;;;3.63;0.98;;;;;;;11.32;100.00;100181.72;4989940;28;20034;-67
2021/11/21 02:12:47;;;;;;;2.55;1.13;;;;;;;11.41;100.00;100181.38;4990577;28;20034;-66
2021/11/21 02:15:22;;;;;;;2.75;1.50;;;;;;;11.44;100.00;100177.97;4986421;28;20022;-66
2021/11/21 02:17:49;;;;;;;3.72;1.50;;;;;;;11.45;100.00;100172.19;4990207;28;20503;-66
2021/11/21 02:20:22;;;;;;;2.20;1.05;;;;;;;11.36;100.00;100169.00;4990140;28;20101;-67
2021/11/21 02:22:48;;;;;;;2.88;1.65;;;;;;;11.43;100.00;100162.91;4987982;28;20493;-66
2021/11/21 02:25:16;;;;;;;4.88;1.20;;;;;;;11.41;100.00;100174.09;4990777;28;20117;-66
2021/11/21 02:27:42;;;;;;;3.63;1.70;;;;;;;11.40;100.00;100160.97;4990457;28;20034;-66
2021/11/21 02:30:09;;;;;;;3.97;2.63;;;;;;;11.41;100.00;100162.53;4988739;28;20408;-65
2021/11/21 02:32:36;;;;;;;3.78;1.70;;;;;;;11.33;100.00;100164.38;4969010;28;20420;-66
2021/11/21 02:35:02;;;;;;;3.05;1.77;;;;;;;11.34;100.00;100163.22;4990412;28;20103;-67
2021/11/21 02:37:27;;;;;;;2.30;1.50;;;;;;;11.43;100.00;100160.22;4990633;28;20517;-66
2021/11/21 02:39:54;;;;;;;2.85;1.75;;;;;;;11.47;100.00;100152.94;4989566;28;20018;-65
2021/11/21 02:42:29;;;;;;;3.05;1.75;;;;;;;11.37;100.00;100150.94;4987539;28;20038;-66
2021/11/21 02:44:55;;;;;;;2.47;1.55;;;;;;;11.40;100.00;100136.72;4989950;28;20034;-67
2021/11/21 02:47:22;;;;;;;3.50;1.95;;;;;;;11.47;100.00;100136.78;4989802;28;20040;-66
2021/11/21 02:49:48;;;;;;;3.33;1.95;;;;;;;11.38;100.00;100145.16;4988789;28;20084;-66
2021/11/21 02:52:14;;;;;;;2.60;1.75;;;;;;;11.36;100.00;100147.44;4985780;28;20041;-66
2021/11/21 02:54:54;;;;;;;3.58;1.65;;;;;;;11.37;100.00;100150.94;4991172;28;20022;-66
2021/11/21 02:57:21;;;;;;;3.40;1.88;;;;;;;11.25;100.00;100143.13;4987584;28;20037;-66
2021/11/21 02:59:48;;;;;;;3.25;1.63;;;;;;;11.23;100.00;100135.41;4989380;28;20046;-66
2021/11/21 03:02:18;;;;;;;5.40;2.40;;;;;;;11.25;100.00;100129.63;4989778;28;20041;-67
2021/11/21 03:04:45;;;;;;;4.50;2.03;;;;;;;11.24;100.00;100128.09;4990714;28;20125;-67
2021/11/21 03:07:11;;;;;;;8.05;2.40;;;;;;;11.16;100.00;100129.97;4990457;28;20035;-67
2021/11/21 03:09:36;;;;;;;5.85;2.50;;;;;;;11.24;100.00;100128.09;4992411;28;20544;-66
2021/11/21 03:12:02;;;;;;;4.03;2.30;;;;;;;11.19;100.00;100110.34;4991104;28;20437;-67
2021/11/21 03:14:28;;;;;;;5.22;2.50;;;;;;;11.24;100.00;100123.50;4990525;28;20549;-67
2021/11/21 03:16:53;;;;;;;7.38;2.70;;;;;;;11.29;100.00;100128.53;4993101;28;20033;-67
2021/11/21 03:19:19;;;;;;;5.97;2.92;;;;;;;11.30;100.00;100127.41;4993627;28;20433;-66
2021/11/21 03:21:44;;;;;;;6.80;2.63;;;;;;;11.23;100.00;100135.41;4992427;28;20030;-66
2021/11/21 03:24:10;;;;;;;6.38;2.83;;;;;;;11.26;100.00;100128.50;4990754;28;20496;-67
2021/11/21 03:26:36;;;;;;;4.53;2.60;;;;;;;11.15;100.00;100123.00;4991696;28;20026;-66
2021/11/21 03:29:03;;;;;;;8.35;3.25;;;;;;;11.11;100.00;100122.19;4992108;28;20374;-67
2021/11/21 03:31:30;;;;;;;5.60;2.58;;;;;;;11.10;100.00;100123.34;4992443;28;20104;-67
2021/11/21 03:33:55;;;;;;;6.05;2.75;;;;;;;11.10;100.00;100122.56;4990382;28;20042;-66
2021/11/21 03:36:21;;;;;;;6.47;2.90;;;;;;;11.13;100.00;100116.47;4993080;28;20519;-66
2021/11/21 03:38:46;;;;;;;6.05;2.38;;;;;;;11.10;100.00;100117.19;4993424;28;20037;-67
2021/11/21 03:41:13;;;;;;;6.05;2.60;;;;;;;11.14;100.00;100115.28;4991562;28;20034;-67
2021/11/21 03:43:38;;;;;;;8.60;3.17;;;;;;;11.20;100.00;100121.91;4990719;28;20044;-67
2021/11/21 03:46:04;;;;;;;6.78;2.83;;;;;;;11.20;100.00;100120.00;4992869;28;20034;-66
2021/11/21 03:48:29;;;;;;;5.85;2.58;;;;;;;11.23;100.00;100127.31;4993228;28;20034;-67
2021/11/21 03:50:55;;;;;;;5.50;2.53;;;;;;;11.18;100.00;100121.50;4988222;28;20034;-66
2021/11/21 03:53:21;;;;;;;5.53;2.42;;;;;;;11.09;100.00;100126.44;4991924;28;20037;-65
2021/11/21 03:55:47;;;;;;;7.03;2.97;;;;;;;11.09;100.00;100121.78;4993063;28;20036;-66
2021/11/21 03:58:13;;;;;;;5.63;2.47;;;;;;;10.97;100.00;100129.38;4993321;28;20473;-66
2021/11/21 04:00:45;;;;;;;7.65;2.95;;;;;;;10.86;100.00;100131.94;4991210;28;20445;-66
2021/11/21 04:03:11;;;;;;;9.18;2.97;;;;;;;10.87;100.00;100136.22;4989819;28;20089;-66
2021/11/21 04:05:37;;;;;;;6.25;2.65;;;;;;;10.95;100.00;100128.97;4990427;28;20656;-66
2021/11/21 04:08:02;;;;;;;4.05;1.95;;;;;;;10.99;100.00;100135.97;4993018;28;20061;-67
2021/11/21 04:10:30;;;;;;;3.10;1.98;;;;;;;11.09;100.00;100123.72;4988808;28;20046;-67
2021/11/21 04:12:56;;;;;;;6.40;2.92;;;;;;;11.12;100.00;100121.06;4991727;28;20108;-66
2021/11/21 04:15:21;;;;;;;4.05;1.77;;;;;;;11.12;100.00;100131.06;4992418;28;20042;-67
2021/11/21 04:17:47;;;;;;;3.70;1.80;;;;;;;11.12;100.00;100121.06;4992865;28;20504;-67
2021/11/21 04:20:13;;;;;;;3.58;1.33;;;;;;;11.04;100.00;100121.34;4988808;28;20034;-66
2021/11/21 04:22:39;;;;;;;3.08;1.55;;;;;;;11.07;100.00;100120.63;4992193;28;20520;-66
2021/11/21 04:25:05;;;;;;;4.75;1.95;;;;;;;11.09;100.00;100121.78;4992543;28;20105;-67
2021/11/21 04:27:32;;;;;;;2.75;1.70;;;;;;;11.07;100.00;100117.94;4992384;28;20054;-66
2021/11/21 04:29:58;;;;;;;3.05;1.80;;;;;;;11.14;100.00;100123.38;4984659;28;20034;-66
2021/11/21 04:32:25;;;;;;;2.80;1.48;;;;;;;11.13;100.00;100117.22;4992037;28;20030;-67
2021/11/21 04:34:51;;;;;;;3.83;1.85;;;;;;;11.18;100.00;100116.09;4992602;28;20040;-66
2021/11/21 04:37:18;;;;;;;3.75;1.60;;;;;;;11.17;100.00;100115.31;4991710;28;20100;-67
2021/11/21 04:39:43;;;;;;;2.40;1.25;;;;;;;11.16;100.00;100115.69;4992198;28;20050;-66
2021/11/21 04:42:10;;;;;;;3.50;1.73;;;;;;;11.16;100.00;100111.09;4989403;28;20040;-66
2021/11/21 04:44:35;;;;;;;3.42;1.70;;;;;;;11.15;100.00;100108.78;4991907;28;20026;-66
2021/11/21 04:47:21;;;;;;;1.88;1.05;;;;;;;11.21;100.00;100124.22;4991978;28;20160;-66
2021/11/21 04:49:47;;;;;;;3.15;1.67;;;;;;;11.22;100.00;100125.00;4950336;29;20047;-66
2021/11/21 04:52:13;;;;;;;1.83;1.52;;;;;;;11.19;100.00;100114.97;4947852;28;20601;-67
2021/11/21 04:54:38;;;;;;;3.60;1.58;;;;;;;11.17;100.00;100118.03;4950960;29;20097;-67
2021/11/21 04:57:05;;;;;;;2.67;1.48;;;;;;;11.21;100.00;100120.75;4951010;29;20038;-66
2021/11/21 04:59:34;;;;;;;3.50;1.65;;;;;;;11.21;100.00;100113.44;4942619;28;20047;-67
2021/11/21 05:02:01;;;;;;;6.32;1.80;;;;;;;11.23;100.00;100107.66;4950279;29;20047;-66
2021/11/21 05:04:27;;;;;;;4.13;1.38;;;;;;;11.21;100.00;100108.03;4950528;29;20754;-69
2021/11/21 05:06:53;;;;;;;4.50;1.80;;;;;;;11.17;100.00;100117.25;4949929;29;20051;-67
2021/11/21 05:09:19;;;;;;;4.57;1.20;;;;;;;11.12;100.00;100117.59;4947219;28;20110;-67
2021/11/21 05:11:45;;;;;;;2.80;1.30;;;;;;;11.17;100.00;100118.03;4949150;29;20039;-66
2021/11/21 05:14:12;;;;;;;3.35;1.58;;;;;;;11.21;100.00;100104.56;4947365;28;20043;-67
2021/11/21 05:16:38;;;;;;;3.25;1.30;;;;;;;11.20;100.00;100109.22;4948868;28;20047;-67
2021/11/21 05:19:04;;;;;;;2.60;1.65;;;;;;;11.21;100.00;100115.34;4950470;29;20046;-67
2021/11/21 05:21:29;;;;;;;1.73;1.25;;;;;;;11.20;100.00;100117.28;4948380;28;20043;-66
2021/11/21 05:24:01;;;;;;;2.00;1.23;;;;;;;11.25;100.00;100105.38;4942391;28;20079;-67
2021/11/21 05:26:27;;;;;;;;;;;;;;;11.19;100.00;100109.59;4948657;28;20540;-66
2021/11/21 05:28:53;;;;;;;2.60;1.17;;;;;;;11.22;100.00;100111.53;4990316;28;20005;-67
2021/11/21 05:31:20;;;;;;;5.45;1.00;;;;;;;11.15;100.00;100114.91;4986658;28;20029;-67
2021/11/21 05:33:46;;;;;;;2.38;0.80;;;;;;;11.15;100.00;100114.16;4990661;28;20089;-67
2021/11/21 05:36:12;;;;;;;2.83;1.17;;;;;;;11.11;100.00;100119.50;4991183;28;20038;-67
2021/11/21 05:38:37;;;;;;;1.35;0.90;;;;;;;11.15;100.00;100116.88;4987575;28;20069;-66
2021/11/21 05:41:03;;;;;;;2.35;1.10;;;;;;;11.13;100.00;100119.16;4990332;28;20038;-67
2021/11/21 05:43:29;;;;;;;1.27;0.88;;;;;;;11.12;100.00;100115.69;4990477;28;20163;-66
2021/11/21 05:45:55;;;;;;;1.48;0.88;;;;;;;11.07;100.00;100123.31;4990904;28;20038;-66
2021/11/21 05:48:23;;;;;;;1.63;0.88;;;;;;;11.15;100.00;100116.88;4971344;28;20562;-66
2021/11/21 05:50:49;;;;;;;1.27;0.65;;;;;;;11.06;100.00;100127.16;4990196;28;20045;-66
2021/11/21 05:53:14;;;;;;;1.58;1.00;;;;;;;11.09;100.00;100112.94;4990931;28;20038;-66
2021/11/21 05:55:40;;;;;;;2.58;0.90;;;;;;;11.02;100.00;100119.03;4990738;28;20058;-66
2021/11/21 05:58:06;;;;;;;1.50;1.38;;;;;;;11.10;100.00;100122.56;4988639;28;20050;-65
2021/11/21 06:00:32;;;;;;;1.27;0.55;;;;;;;11.06;100.00;100109.06;4967265;28;20043;-66
2021/11/21 06:02:59;;;;;;;1.00;0.80;;;;;;;11.04;100.00;100107.88;4989110;28;20034;-65
2021/11/21 06:05:25;;;;;;;1.95;0.85;;;;;;;11.03;100.00;100117.13;4990709;28;20042;-65
2021/11/21 06:07:50;;;;;;;1.58;0.90;;;;;;;10.98;100.00;100114.75;4987551;28;20041;-66
2021/11/21 06:10:18;;;;;;;1.90;0.90;;;;;;;10.96;100.00;100117.81;4988669;28;20596;-65
2021/11/21 06:13:04;;;;;;;0.80;0.80;;;;;;;11.05;100.00;100107.53;4968787;28;20122;-67
2021/11/21 06:15:30;;;;;;;1.45;0.90;;;;;;;11.02;100.00;100116.34;4928831;29;20452;-65
2021/11/21 06:17:56;;;;;;;4.10;1.13;;;;;;;11.05;100.00;100110.22;4930247;29;20039;-65
2021/11/21 06:20:21;;;;;;;3.95;1.33;;;;;;;11.10;100.00;100115.28;4929889;29;20126;-65
2021/11/21 06:22:50;;;;;;;3.53;1.10;;;;;;;11.09;100.00;100115.66;4927266;29;20395;-65
2021/11/21 06:25:15;;;;;;;2.90;1.38;;;;;;;11.06;100.00;100113.69;4930806;29;20569;-66
2021/11/21 06:27:41;;;;;;;2.72;0.90;;;;;;;11.03;100.00;100120.59;4930739;29;20071;-65
2021/11/21 06:30:08;;;;;;;2.53;1.17;;;;;;;11.04;100.00;100113.28;4931248;29;20140;-65
2021/11/21 06:32:34;;;;;;;1.35;1.00;;;;;;;10.98;100.00;100112.06;4933969;29;20052;-65
2021/11/21 06:35:00;;;;;;;2.05;1.02;;;;;;;10.98;100.00;100112.06;4928291;29;20059;-66
2021/11/21 06:37:25;;;;;;;1.17;0.63;;;;;;;10.95;100.00;100112.81;4932059;29;20027;-65
2021/11/21 06:39:51;;;;;;;1.27;0.75;;;;;;;10.98;100.00;100114.75;4931628;29;20050;-65
2021/11/21 06:42:17;;;;;;;1.15;0.70;;;;;;;11.04;100.00;100118.66;4927751;29;20050;-65
2021/11/21 06:44:43;;;;;;;1.35;0.57;;;;;;;10.96;100.00;100117.81;4931079;29;20842;-66
2021/11/21 06:47:10;;;;;;;3.30;0.80;;;;;;;10.91;100.00;100120.88;4928842;29;20119;-65
2021/11/21 06:49:35;;;;;;;0.73;0.52;;;;;;;10.92;100.00;100116.25;4927287;29;20096;-66
2021/11/21 06:52:01;;;;;;;0.68;0.50;;;;;;;10.86;100.00;100123.88;4936448;28;20850;-65
2021/11/21 06:54:30;;;;;;;1.67;0.60;;;;;;;10.80;100.00;100115.34;4993147;28;20033;-66
2021/11/21 06:56:59;;;;;;;1.95;0.73;;;;;;;10.82;100.00;100121.16;4988232;28;20023;-66
2021/11/21 06:59:25;;;;;;;6.55;0.55;;;;;;;10.80;100.00;100120.00;4992383;28;20034;-66
2021/11/21 07:01:50;;;;;;;5.97;0.85;;;;;;;10.90;100.00;100117.38;4989505;28;20031;-66
2021/11/21 07:04:16;;;;;;;0.70;0.60;;;;;;;10.82;100.00;100120.38;4976156;28;20034;-65
2021/11/21 07:06:44;;;;;;;0.75;0.60;;;;;;;10.77;100.00;100126.88;4993158;28;20031;-65
2021/11/21 07:09:12;;;;;;;1.42;0.75;;;;;;;10.81;100.00;100130.38;4989724;28;20042;-66
2021/11/21 07:11:39;;;;;;;1.13;0.75;;;;;;;10.85;100.00;100128.50;4990977;28;20027;-66
2021/11/21 07:14:06;;;;;;;4.72;0.75;;;;;;;10.82;100.00;100125.75;4990138;28;20041;-66
2021/11/21 07:16:32;;;;;;;0.38;0.30;;;;;;;10.79;100.00;100127.28;4988855;28;20033;-65
2021/11/21 07:18:58;;;;;;;3.50;0.68;;;;;;;10.85;100.00;100127.72;4993488;28;20030;-66
2021/11/21 07:21:23;;;;;;;1.17;0.75;;;;;;;10.85;100.00;100135.81;4989116;28;20125;-65
2021/11/21 07:23:49;;;;;;;4.78;1.00;;;;;;;10.80;100.00;100123.44;4990097;28;20039;-65
2021/11/21 07:26:14;;;;;;;2.55;0.38;;;;;;;10.77;100.00;100137.66;4990308;28;20034;-65
2021/11/21 07:28:40;;;;;;;0.88;0.40;;;;;;;10.79;100.00;100132.66;4992144;28;20038;-65
2021/11/21 07:31:07;;;;;;;1.45;0.55;;;;;;;10.78;100.00;100139.19;4989185;28;20030;-67
2021/11/21 07:33:32;;;;;;;0.63;0.43;;;;;;;10.81;100.00;100137.69;4992586;28;20428;-65
2021/11/21 07:35:58;;;;;;;4.85;0.50;;;;;;;10.78;100.00;100138.44;4988842;28;20030;-65
2021/11/21 07:38:24;;;;;;;6.60;0.70;;;;;;;10.87;100.00;100141.59;4993625;28;20058;-66
2021/11/21 07:40:54;;;;;;;0.63;0.40;;;;;;;10.80;100.00;100146.91;4991486;28;20088;-66
2021/11/21 07:43:21;;;;;;;0.93;0.47;;;;;;;10.71;100.00;100146.41;4989896;28;20117;-66
2021/11/21 07:45:47;;;;;;;0.68;0.63;;;;;;;10.77;100.00;100139.56;4990574;28;20809;-65
2021/11/21 07:48:13;;;;;;;0.63;0.40;;;;;;;10.76;100.00;100146.09;4993438;28;20034;-65
2021/11/21 07:50:39;;;;;;;0.60;0.45;;;;;;;10.73;100.00;100142.22;4992544;28;20493;-66
2021/11/21 07:53:04;;;;;;;0.93;0.60;;;;;;;10.73;100.00;100154.91;4992479;28;20034;-66
2021/11/21 07:55:30;;;;;;;2.25;0.80;;;;;;;10.74;100.00;100154.53;4972192;28;20147;-65
2021/11/21 07:57:55;;;;;;;1.80;0.63;;;;;;;10.74;100.00;100154.53;4991586;28;20030;-65
2021/11/21 08:00:21;;;;;;;1.35;0.52;;;;;;;10.76;100.00;100154.19;4991053;28;20188;-66
2021/11/21 08:02:47;;;;;;;2.47;1.77;;;;;;;10.85;100.00;100163.53;4990999;28;20048;-66
2021/11/21 08:05:12;;;;;;;1.10;0.80;;;;;;;10.89;100.00;100166.25;4988531;28;20037;-66
2021/11/21 08:07:39;;;;;;;1.08;0.80;;;;;;;10.82;100.00;100164.25;4989871;28;20421;-65
2021/11/21 08:10:08;;;;;;;1.50;0.65;;;;;;;10.92;100.00;100175.53;4989113;28;20042;-66
2021/11/21 08:12:34;;;;;;;2.08;0.60;;;;;;;10.92;100.00;100173.56;4987134;28;20104;-65
2021/11/21 08:15:00;;;;;;;1.33;0.82;;;;;;;10.91;100.00;100177.44;4989526;28;20444;-65
2021/11/21 08:17:25;;;;;;;1.27;0.73;;;;;;;10.95;100.00;100175.56;4984306;28;20034;-67
2021/11/21 08:19:51;;;;;;;0.93;0.60;;;;;;;11.05;100.00;100179.50;4990323;28;20404;-66
2021/11/21 08:22:16;;;;;;;3.83;1.80;;;;;;;11.04;100.00;100175.25;4974351;28;20026;-67
2021/11/21 08:24:42;;;;;;;5.00;1.05;;;;;;;11.03;100.00;100171.00;4991966;28;20037;-67
2021/11/21 08:27:10;;;;;;;3.47;0.90;;;;;;;11.18;100.00;100180.78;4989360;28;20469;-67
2021/11/21 08:29:36;;;;;;;4.47;1.20;;;;;;;11.21;100.00;100177.34;4983124;28;20035;-67
2021/11/21 08:32:02;;;;;;;1.73;0.68;;;;;;;11.16;100.00;100175.00;4990037;28;20037;-67
2021/11/21 08:34:28;;;;;;;5.80;0.90;;;;;;;11.23;100.00;100169.66;4985441;28;20041;-67
2021/11/21 08:36:54;;;;;;;3.55;0.90;;;;;;;11.19;100.00;100175.03;4991052;28;20037;-66
2021/11/21 08:39:23;;;;;;;3.28;0.80;;;;;;;11.29;100.00;100185.13;4991640;28;20026;-66
2021/11/21 08:41:54;;;;;;;1.48;1.00;;;;;;;11.37;100.00;100170.59;4989631;28;20038;-67
2021/11/21 08:44:21;;;;;;;1.63;0.90;;;;;;;11.43;100.00;100173.72;4989917;28;20539;-66
2021/11/21 08:46:47;;;;;;;0.73;0.73;;;;;;;11.42;100.00;100174.88;4988420;28;20030;-66
2021/11/21 08:49:13;;;;;;;1.48;0.80;;;;;;;11.42;100.00;100177.56;4992635;28;20040;-66
2021/11/21 08:51:45;;;;;;;1.30;0.90;;;;;;;11.59;100.00;100180.38;4990338;28;20084;-66
2021/11/21 08:54:12;;;;;;;1.33;0.65;;;;;;;11.55;100.00;100182.31;4990384;28;20125;-66
2021/11/21 08:56:39;;;;;;;5.22;1.00;;;;;;;11.52;100.00;100177.63;4989188;28;20054;-67
2021/11/21 08:59:05;;;;;;;1.05;0.75;;;;;;;11.50;100.00;100181.84;4984836;28;20049;-66
2021/11/21 09:01:30;;;;;;;2.40;1.25;;;;;;;11.43;100.00;100182.59;4985674;28;20034;-67
2021/11/21 09:03:56;;;;;;;6.82;1.20;;;;;;;11.54;100.00;100188.06;4988797;28;20121;-67
2021/11/21 09:06:22;;;;;;;2.13;1.00;;;;;;;11.61;100.00;100186.19;4989138;28;20346;-67
2021/11/21 09:08:47;;;;;;;2.00;0.75;;;;;;;11.59;100.00;100195.81;4989656;28;20042;-67
2021/11/21 09:11:13;;;;;;;0.75;0.50;;;;;;;11.54;100.00;100179.97;4955402;28;20077;-67
2021/11/21 09:13:39;;;;;;;1.88;0.82;;;;;;;11.54;100.00;100183.44;4989636;28;20038;-66
2021/11/21 09:16:05;;;;;;;1.65;0.70;;;;;;;11.62;100.00;100187.75;4989124;28;20050;-66
2021/11/21 09:18:31;;;;;;;0.65;0.63;;;;;;;11.65;100.00;100194.34;4990166;28;20100;-66
2021/11/21 09:20:58;;;;;;;2.03;0.73;;;;;;;11.63;100.00;100183.13;4988077;28;20030;-67
2021/11/21 09:23:25;;;;;;;3.03;0.65;;;;;;;11.74;100.00;100189.41;4989993;28;20038;-67
2021/11/21 09:25:52;;;;;;;1.77;0.60;;;;;;;11.60;100.00;100195.44;4989948;28;20055;-66
2021/11/21 09:28:20;;;;;;;1.83;0.80;;;;;;;11.53;100.00;100195.38;4986948;28;20053;-67
2021/11/21 09:30:46;;;;;;;1.83;0.57;;;;;;;11.58;100.00;100194.25;4988820;28;20030;-67
2021/11/21 09:33:12;;;;;;;2.05;0.50;;;;;;;11.58;100.00;100196.94;4985642;28;20505;-67
2021/11/21 09:35:38;;;;;;;0.82;0.45;;;;;;;11.57;100.00;100193.50;4990032;28;20034;-66
2021/11/21 09:38:03;;;;;;;1.05;0.65;;;;;;;11.70;100.00;100192.09;4990696;28;20073;-67
2021/11/21 09:40:30;;;;;;;2.00;0.40;;;;;;;11.68;100.00;100201.69;4990103;28;20524;-67
2021/11/21 09:42:56;;;;;;;3.53;0.50;;;;;;;11.77;100.00;100200.22;4989287;28;20026;-66
2021/11/21 09:45:21;;;;;;;0.80;0.77;;;;;;;11.77;100.00;100194.06;4988202;28;20026;-66
2021/11/21 09:47:54;;;;;;;0.82;0.43;;;;;;;11.78;100.00;100198.31;4989495;28;20026;-66
2021/11/21 09:50:22;;;;;;;0.80;0.40;;;;;;;11.79;100.00;100195.22;4988816;28;20093;-67
2021/11/21 09:52:51;;;;;;;0.35;0.25;;;;;;;11.93;100.00;100197.25;4990630;28;20129;-67
2021/11/21 09:55:18;;;;;;;0.90;0.43;;;;;;;11.94;100.00;100198.84;4988898;28;20085;-67
2021/11/21 09:57:45;;;;;;;0.77;0.47;;;;;;;11.93;100.00;100196.47;4989357;28;20026;-67
2021/11/21 10:00:14;;;;;;;2.92;1.05;;;;;;;12.03;100.00;100207.38;4989909;28;20576;-67
2021/11/21 10:02:45;;;;;;;0.47;0.47;;;;;;;11.99;100.00;100206.56;4987358;28;20070;-67
2021/11/21 10:05:25;;;;;;;0.55;0.52;;;;;;;11.81;100.00;100200.25;4988818;28;20043;-67
2021/11/21 10:08:12;;;;;;;0.43;0.38;;;;;;;11.90;100.00;100203.41;4988658;28;20046;-67
2021/11/21 10:11:01;;;;;;;1.70;0.80;;;;;;;11.93;100.00;100196.47;4979453;28;20061;-67
2021/11/21 10:13:37;;;;;;;1.10;0.60;;;;;;;11.99;100.00;100198.47;4983059;28;20059;-67
2021/11/21 10:16:18;;;;;;;0.50;0.50;;;;;;;12.08;100.00;100204.31;4988955;28;20038;-67
2021/11/21 10:18:54;;;;;;;4.35;0.90;;;;;;;12.09;100.00;100211.28;4987650;28;20061;-67
2021/11/21 10:21:28;;;;;;;4.32;0.43;;;;;;;11.98;100.00;100213.09;4988690;28;20035;-67
2021/11/21 10:24:21;;;;;;;0.95;0.55;;;;;;;11.85;100.00;100209.16;4989352;28;20377;-67
2021/11/21 10:27:01;;;;;;;2.75;0.90;;;;;;;11.83;100.00;100199.91;4971272;28;20483;-67
2021/11/21 10:29:39;;;;;;;0.50;0.50;;;;;;;11.73;100.00;100198.63;4971256;28;20038;-67
2021/11/21 10:32:22;;;;;;;2.55;0.40;;;;;;;11.63;100.00;100200.06;4985759;28;20167;-67
2021/11/21 10:34:56;;;;;;;2.33;0.32;;;;;;;11.58;100.00;100195.03;4990875;28;20138;-67
2021/11/21 10:37:36;;;;;;;2.40;0.57;;;;;;;11.68;100.00;100196.31;4988428;28;20030;-67
2021/11/21 10:40:11;;;;;;;1.48;0.57;;;;;;;11.69;99.80;100192.47;4988439;28;20026;-67
2021/11/21 10:42:46;;;;;;;3.55;1.30;;;;;;;11.66;99.65;100204.00;4990662;28;20034;-67
2021/11/21 10:45:13;;;;;;;3.83;0.60;;;;;;;11.63;100.00;100196.63;4988075;28;20084;-67
2021/11/21 10:47:50;;;;;;;7.38;0.75;;;;;;;11.56;99.72;100200.03;4987725;28;20628;-67
2021/11/21 10:50:30;;;;;;;1.52;0.40;;;;;;;11.62;99.49;100201.22;4988623;28;20049;-67
2021/11/21 10:52:57;;;;;;;0.82;0.30;;;;;;;11.74;98.12;100208.28;4987815;28;20046;-67
2021/11/21 10:55:23;;;;;;;0.65;0.25;;;;;;;11.67;98.15;100200.91;4988309;28;20035;-67
2021/11/21 10:57:48;;;;;;;0.77;0.52;;;;;;;11.70;97.48;100205.56;4990367;28;20049;-68
2021/11/21 11:00:15;;;;;;;1.30;0.75;;;;;;;11.65;96.86;100202.41;4988019;28;20030;-67
2021/11/21 11:02:43;;;;;;;0.20;0.20;;;;;;;11.68;96.88;100210.56;4986492;28;20030;-67
2021/11/21 11:05:14;;;;;;;0.50;0.30;;;;;;;11.60;95.37;100208.13;4986973;28;20505;-68
2021/11/21 11:08:03;;;;;;;2.92;0.43;;;;;;;11.65;94.90;100210.50;4985398;28;20031;-67
2021/11/21 11:10:36;;;;;;;0.45;0.15;;;;;;;11.74;94.16;100202.91;4981776;28;20038;-67
2021/11/21 11:13:11;;;;;;;0.20;0.20;;;;;;;11.87;94.69;100192.59;4985086;28;20031;-67
2021/11/21 11:15:40;;;;;;;0.20;0.20;;;;;;;12.00;93.89;100193.84;4988395;28;20038;-67
2021/11/21 11:18:15;;;;;;;0.45;0.28;;;;;;;12.07;92.64;100191.97;4992803;28;20046;-67
2021/11/21 11:20:46;;;;;;;0.28;0.20;;;;;;;12.19;91.84;100201.69;4985075;28;20042;-67